"WATCHING THE WEATHER TO PROTECT LIFE AND PROPERTY"


THERE ARE CURRENTLY NO WATCHES NOR WARNINGS


Aviation
Satellite (InfraRed)


TNCA 240100Z 08013KT 9999 SCT020 27/22 Q1013 NOSIG
TNCB 240055Z 08009KT 9999 FEW016 26/23 Q1013
TNCC 240100Z 10011KT 9999 FEW018 27/23 Q1013 NOSIG